KSLE/SLE METAR and TAF weather

Enter ICAO airport designator
Station Type Date Time Source
KSLE METAR 2019/10/23 01:56 UTC NOAA

KSLE 230156Z 03006KT 10SM CLR 14/09 A3039 RMK AO2 SLP292 T01440094


Station Type Date Time Source
KSLE Decoded METAR 2019/10/23 01:56 UTC NOAA

SALEM MCNARY FIELD, OR, United States (KSLE) 44-54N 123-00W 59M
Oct 22, 2019 - 09:56 PM EDT / 2019.10.23 0156 UTC
Wind: from the NNE (030 degrees) at 7 MPH (6 KT):0
Visibility: 10 mile(s):0
Sky conditions: clear
Temperature: 57.9 F (14.4 C)
Dew Point: 48.9 F (9.4 C)
Relative Humidity: 71%
Pressure (altimeter): 30.39 in. Hg (1029 hPa)
ob: KSLE 230156Z 03006KT 10SM CLR 14/09 A3039 RMK AO2 SLP292 T01440094
cycle: 2

Station Type Date Time Source
KSLE TAF 2019/10/22 18:36 UTC NOAA

TAF KSLE 221734Z 2218/2318 VRB04KT P6SM SCT015 OVC028
TEMPO 2218/2220 5SM BR BKN007 OVC028
FM222000 35005KT P6SM SCT045
FM230900 VRB03KT 6SM BR VCFG SCT005 OVC028
FM231300 VRB02KT 3SM BR BKN010
FM231700 36003KT 5SM BR BKN025

Example: see airport list